createdAt,value
2023-01-30T00:47:18.413Z,2.00
2023-01-30T00:49:46.926Z,2.22
2023-01-30T00:52:18.291Z,1.70
2023-01-30T00:54:46.686Z,1.50
2023-01-30T00:57:15.453Z,4.30
2023-01-30T00:59:43.949Z,4.03
2023-01-30T01:47:40.227Z,3.15
2023-01-30T01:50:15.121Z,3.80
2023-01-30T01:52:45.985Z,2.13
2023-01-30T01:55:17.497Z,2.63
2023-01-30T01:57:52.443Z,2.33
2023-01-30T02:48:05.102Z,3.50
2023-01-30T02:50:41.091Z,1.52
2023-01-30T02:53:10.490Z,2.05
2023-01-30T02:55:43.005Z,3.63
2023-01-30T02:58:13.653Z,2.50
2023-01-30T03:47:32.536Z,1.70
2023-01-30T03:50:02.977Z,1.73
2023-01-30T03:52:35.601Z,1.63
2023-01-30T03:55:04.969Z,2.45
2023-01-30T03:57:33.591Z,1.80
2023-01-30T04:47:18.717Z,1.58
2023-01-30T04:49:47.433Z,1.70
2023-01-30T04:52:17.622Z,1.65
2023-01-30T04:54:46.094Z,1.67
2023-01-30T04:57:14.927Z,3.10
2023-01-30T04:59:43.485Z,2.17
2023-01-30T05:47:28.115Z,2.90
2023-01-30T05:49:57.159Z,1.77
2023-01-30T05:52:26.012Z,1.70
2023-01-30T05:54:54.502Z,1.60
2023-01-30T05:57:23.197Z,1.85
2023-01-30T05:59:51.666Z,1.98
2023-01-30T06:02:20.137Z,1.92
2023-01-30T06:04:49.952Z,1.80
2023-01-30T06:07:18.517Z,2.05
2023-01-30T06:09:47.160Z,1.50
2023-01-30T06:12:15.681Z,2.42
2023-01-30T06:14:44.044Z,1.90
2023-01-30T06:17:12.660Z,1.77
2023-01-30T06:19:41.445Z,1.85
2023-01-30T06:22:11.543Z,2.72
2023-01-30T06:24:39.957Z,1.60
2023-01-30T06:27:08.512Z,1.50
2023-01-30T06:29:37.036Z,1.60
2023-01-30T06:32:11.579Z,1.50
2023-01-30T06:34:42.896Z,2.58
2023-01-30T06:37:12.817Z,2.03
2023-01-30T06:39:41.182Z,2.00
2023-01-30T06:42:10.011Z,1.60
2023-01-30T06:44:38.886Z,1.75
2023-01-30T06:47:07.369Z,1.50
2023-01-30T06:49:35.896Z,2.65
2023-01-30T06:52:04.404Z,2.20
2023-01-30T06:54:34.252Z,6.07
2023-01-30T06:57:02.895Z,2.60
2023-01-30T06:59:31.419Z,1.20
2023-01-30T07:02:00.174Z,3.30
2023-01-30T07:04:28.878Z,2.15
2023-01-30T07:06:57.544Z,2.17
2023-01-30T07:09:26.456Z,2.65
2023-01-30T07:11:56.481Z,8.15
2023-01-30T07:14:24.997Z,2.80
2023-01-30T07:16:53.488Z,3.03
2023-01-30T07:19:22.021Z,3.63
2023-01-30T07:21:50.572Z,2.58
2023-01-30T07:24:19.462Z,2.75
2023-01-30T07:26:49.608Z,3.65
2023-01-30T07:29:19.649Z,3.45
2023-01-30T07:31:48.101Z,3.65
2023-01-30T07:34:16.600Z,2.83
2023-01-30T07:36:45.227Z,2.35
2023-01-30T07:39:14.100Z,4.53
2023-01-30T07:41:42.565Z,4.97
2023-01-30T07:44:13.429Z,2.50
2023-01-30T07:46:43.508Z,2.38
2023-01-30T07:49:13.647Z,2.45
2023-01-30T07:51:42.529Z,2.92
2023-01-30T07:54:10.967Z,2.55
2023-01-30T07:56:39.772Z,2.17
2023-01-30T07:59:08.146Z,2.00
2023-01-30T08:01:36.602Z,2.85
2023-01-30T08:04:06.441Z,3.25
2023-01-30T08:06:38.991Z,1.80
2023-01-30T08:09:08.237Z,3.35
2023-01-30T08:11:36.694Z,2.03
2023-01-30T08:14:05.163Z,2.72
2023-01-30T08:16:34.153Z,2.67
2023-01-30T08:19:05.038Z,3.40
2023-01-30T08:21:34.863Z,2.33
2023-01-30T08:24:03.380Z,1.83
2023-01-30T08:26:31.961Z,3.20
2023-01-30T08:29:00.356Z,2.08
2023-01-30T08:31:28.892Z,2.35
2023-01-30T08:33:57.759Z,1.60
2023-01-30T08:36:26.225Z,1.48
2023-01-30T08:38:56.054Z,2.65
2023-01-30T08:41:24.687Z,1.70
2023-01-30T08:43:53.060Z,1.92
2023-01-30T08:46:22.076Z,2.03
2023-01-30T08:48:50.768Z,1.65
2023-01-30T08:51:19.215Z,2.00
2023-01-30T08:53:47.572Z,1.85
2023-01-30T08:56:17.355Z,2.70
2023-01-30T08:58:46.638Z,1.63
2023-01-30T09:01:15.256Z,2.55
2023-01-30T09:03:43.945Z,1.92
2023-01-30T09:06:12.606Z,2.35
2023-01-30T09:08:41.216Z,1.55
2023-01-30T09:11:11.180Z,1.67
2023-01-30T09:13:43.606Z,2.65
2023-01-30T09:16:13.493Z,2.35
2023-01-30T09:18:43.955Z,3.05
2023-01-30T09:21:14.024Z,2.38
2023-01-30T09:23:42.809Z,1.77
2023-01-30T09:26:11.456Z,4.93
2023-01-30T09:28:41.362Z,1.75
2023-01-30T09:31:10.286Z,1.90
2023-01-30T09:33:38.768Z,2.35
2023-01-30T09:36:08.795Z,2.45
2023-01-30T09:38:37.231Z,1.58
2023-01-30T09:41:47.370Z,1.60
2023-01-30T09:45:00.442Z,1.80
2023-01-30T09:47:42.467Z,1.65
2023-01-30T09:50:32.060Z,1.90
2023-01-30T09:53:07.177Z,1.60
2023-01-30T09:55:41.474Z,1.95
2023-01-30T09:58:19.169Z,3.03
2023-01-30T10:00:50.538Z,1.80
2023-01-30T10:03:21.662Z,2.22
2023-01-30T10:05:53.811Z,1.75
2023-01-30T10:08:53.082Z,3.67
2023-01-30T10:11:41.784Z,1.63
2023-01-30T10:14:42.861Z,3.25
2023-01-30T10:17:41.729Z,6.57
2023-01-30T10:20:31.757Z,2.88
2023-01-30T10:23:16.889Z,2.42
2023-01-30T10:25:50.105Z,1.58
2023-01-30T10:28:25.979Z,1.98
2023-01-30T10:31:02.023Z,2.38
2023-01-30T10:33:36.329Z,1.52
2023-01-30T10:36:11.083Z,2.13
2023-01-30T10:38:45.238Z,2.47
2023-01-30T10:41:25.272Z,2.17
2023-01-30T10:44:04.143Z,1.67
2023-01-30T10:47:06.882Z,3.88
2023-01-30T10:49:45.027Z,3.30
2023-01-30T10:52:31.857Z,1.92
2023-01-30T10:55:13.295Z,5.40
2023-01-30T10:57:52.549Z,4.40
2023-01-30T11:00:30.059Z,4.07
2023-01-30T11:03:21.236Z,6.13
2023-01-30T11:05:53.617Z,4.00
2023-01-30T11:08:27.296Z,3.13
2023-01-30T11:10:57.210Z,3.95
2023-01-30T11:13:31.438Z,3.67
2023-01-30T11:16:05.291Z,4.15
2023-01-30T11:19:17.754Z,3.38
2023-01-30T11:21:38.475Z,2.22
2023-01-30T11:24:18.184Z,4.15
2023-01-30T11:26:48.659Z,4.32
2023-01-30T11:29:28.944Z,4.03
2023-01-30T11:32:02.881Z,4.95
2023-01-30T11:34:31.760Z,4.70
2023-01-30T11:37:24.519Z,6.53
2023-01-30T11:39:54.551Z,3.28
2023-01-30T11:42:30.939Z,3.22
2023-01-30T11:45:17.176Z,5.18
2023-01-30T11:48:02.026Z,4.28
2023-01-30T11:50:47.610Z,2.90
2023-01-30T11:53:31.073Z,3.53
2023-01-30T11:56:08.493Z,4.47
2023-01-30T11:58:41.458Z,3.72
2023-01-30T12:01:11.927Z,1801.25
2023-01-30T12:03:49.419Z,1406.38
2023-01-30T12:06:30.066Z,981.35
2023-01-30T12:09:01.360Z,852.47
2023-01-30T12:11:45.064Z,797.63
2023-01-30T12:14:27.731Z,763.30
2023-01-30T12:17:05.730Z,792.08
2023-01-30T12:19:50.397Z,726.35
2023-01-30T12:22:27.878Z,641.65
2023-01-30T12:25:04.420Z,640.13
2023-01-30T12:27:49.851Z,630.40
2023-01-30T12:30:28.506Z,654.92
2023-01-30T12:35:49.199Z,645.45
2023-01-30T12:38:38.380Z,602.85
2023-01-30T12:41:29.448Z,583.58
2023-01-30T12:44:18.716Z,548.13
2023-01-30T12:47:00.927Z,532.78
2023-01-30T12:49:50.529Z,516.63
2023-01-30T12:52:43.006Z,493.17
2023-01-30T12:55:29.370Z,479.92
2023-01-30T12:58:04.566Z,488.60
2023-01-30T13:00:56.618Z,449.58
2023-01-30T13:03:34.972Z,338.27
2023-01-30T13:06:22.177Z,231.68
2023-01-30T13:09:19.916Z,194.88
2023-01-30T13:11:59.551Z,180.75
2023-01-30T13:14:37.412Z,149.40
2023-01-30T13:17:47.615Z,141.80
2023-01-30T13:20:35.646Z,138.27
2023-01-30T13:23:15.030Z,135.57
2023-01-30T13:25:55.725Z,120.97
2023-01-30T13:28:27.627Z,72.22
2023-01-30T13:30:58.655Z,62.78
2023-01-30T13:33:33.068Z,68.95
2023-01-30T13:36:12.469Z,77.00
2023-01-30T13:38:50.764Z,80.50
2023-01-30T13:41:20.669Z,73.75
2023-01-30T13:43:54.212Z,83.50
2023-01-30T13:46:30.083Z,79.65
2023-01-30T13:49:12.637Z,72.57
2023-01-30T13:51:48.780Z,69.57
2023-01-30T13:54:47.969Z,77.60
2023-01-30T13:57:29.404Z,70.10
2023-01-30T14:00:30.213Z,180.80
2023-01-30T14:03:26.445Z,161.02
2023-01-30T14:06:37.672Z,145.18
2023-01-30T14:09:27.748Z,126.75
2023-01-30T14:12:01.783Z,113.22
2023-01-30T14:14:34.087Z,115.38
2023-01-30T14:17:16.667Z,105.47
2023-01-30T14:19:58.420Z,92.20
2023-01-30T14:22:42.890Z,87.55
2023-01-30T14:25:45.997Z,75.22
2023-01-30T14:28:47.521Z,72.85
2023-01-30T14:31:52.466Z,72.28
2023-01-30T14:35:10.852Z,66.55
2023-01-30T14:38:18.801Z,73.10
2023-01-30T14:41:25.573Z,66.97
2023-01-30T14:43:54.706Z,57.03
2023-01-30T14:46:55.058Z,50.13
2023-01-30T14:49:34.127Z,53.00
2023-01-30T14:52:05.648Z,52.05
2023-01-30T14:54:43.500Z,50.67
2023-01-30T14:57:24.412Z,51.47
2023-01-30T15:00:18.758Z,55.92
2023-01-30T15:02:53.635Z,49.28
2023-01-30T15:05:32.454Z,47.08
2023-01-30T15:08:10.709Z,49.55
2023-01-30T15:11:04.274Z,48.33
2023-01-30T15:14:05.360Z,44.85
2023-01-30T15:17:14.966Z,52.30
2023-01-30T15:20:19.474Z,44.35
2023-01-30T15:23:35.844Z,46.33
2023-01-30T15:26:24.967Z,38.70
2023-01-30T15:29:10.106Z,41.78
2023-01-30T15:31:38.689Z,40.45
2023-01-30T15:34:21.892Z,40.10
2023-01-30T15:36:52.647Z,45.00
2023-01-30T15:39:25.727Z,39.90
2023-01-30T15:42:01.231Z,37.00
2023-01-30T15:44:51.595Z,33.80
2023-01-30T15:47:51.199Z,38.90
2023-01-30T15:50:20.622Z,36.25
2023-01-30T15:52:51.809Z,32.78
2023-01-30T15:55:27.098Z,34.00
2023-01-30T15:58:00.445Z,35.55
2023-01-30T16:00:32.962Z,31.85
2023-01-30T16:03:03.069Z,31.98
2023-01-30T16:05:32.443Z,31.40
2023-01-30T16:08:21.149Z,34.40
2023-01-30T16:10:51.920Z,31.42
2023-01-30T16:13:23.031Z,30.65
2023-01-30T16:15:59.082Z,28.88
2023-01-30T16:18:33.827Z,29.67
2023-01-30T16:21:05.678Z,28.67
2023-01-30T16:23:38.767Z,35.35
2023-01-30T16:26:14.157Z,27.90
2023-01-30T16:28:42.896Z,30.77
2023-01-30T16:31:12.895Z,32.95
2023-01-30T16:33:41.485Z,29.98
2023-01-30T16:36:39.789Z,29.90
2023-01-30T16:39:31.469Z,26.35
2023-01-30T16:42:03.483Z,27.90
2023-01-30T16:44:33.224Z,24.95
2023-01-30T16:47:05.793Z,29.55
2023-01-30T16:49:45.501Z,22.73
2023-01-30T16:52:22.566Z,15.35
2023-01-30T16:54:54.203Z,20.15
2023-01-30T16:57:36.694Z,20.35
2023-01-30T17:00:10.067Z,17.38
2023-01-30T17:02:42.629Z,21.10
2023-01-30T17:05:22.148Z,11.93
2023-01-30T17:07:52.790Z,21.95
2023-01-30T17:10:53.217Z,15.20
2023-01-30T17:13:38.796Z,17.02
2023-01-30T17:16:33.445Z,17.58
2023-01-30T17:19:02.702Z,14.15
2023-01-30T17:21:36.069Z,14.85
2023-01-30T17:24:06.400Z,17.08
2023-01-30T17:26:34.966Z,14.35
2023-01-30T17:29:05.010Z,15.25
2023-01-30T17:31:34.721Z,14.38
2023-01-30T17:34:03.511Z,13.52
2023-01-30T17:36:32.852Z,9.98
2023-01-30T17:39:01.498Z,10.50
2023-01-30T17:41:33.621Z,12.35
2023-01-30T17:44:02.355Z,10.95
2023-01-30T17:46:37.748Z,9.75
2023-01-30T17:49:06.367Z,13.18
2023-01-30T17:51:35.513Z,11.88
2023-01-30T17:54:04.266Z,10.40
2023-01-30T17:56:38.635Z,13.52
2023-01-30T17:59:14.486Z,10.52
2023-01-30T18:01:46.597Z,10.85
2023-01-30T18:04:15.997Z,9.77
2023-01-30T18:06:47.345Z,144.43
2023-01-30T18:09:18.934Z,75.55
2023-01-30T18:11:47.987Z,677.97
2023-01-30T18:14:17.831Z,674.22
2023-01-30T18:16:48.315Z,523.95
2023-01-30T18:19:24.027Z,325.15
2023-01-30T18:21:52.990Z,217.88
2023-01-30T18:24:21.859Z,134.13
2023-01-30T18:26:50.592Z,94.22
2023-01-30T18:29:19.273Z,66.90
2023-01-30T18:31:49.423Z,131.00
2023-01-30T18:34:18.182Z,112.70
2023-01-30T18:36:46.661Z,89.32
2023-01-30T18:39:15.332Z,80.30
2023-01-30T18:41:43.766Z,65.20
2023-01-30T18:44:13.042Z,56.75
2023-01-30T18:46:41.522Z,39.13
2023-01-30T18:49:11.494Z,31.70
2023-01-30T18:51:40.380Z,25.05
2023-01-30T18:54:08.859Z,19.33
2023-01-30T18:56:38.713Z,17.23
2023-01-30T18:59:08.314Z,16.27
2023-01-30T19:01:39.948Z,15.93
2023-01-30T19:04:12.250Z,14.07
2023-01-30T19:06:44.522Z,12.55
2023-01-30T19:09:15.585Z,22.27
2023-01-30T19:12:01.728Z,14.55
2023-01-30T19:14:30.114Z,15.32
2023-01-30T19:16:58.668Z,15.20
2023-01-30T19:19:28.483Z,13.25
2023-01-30T19:21:57.039Z,11.77
2023-01-30T19:24:25.937Z,15.50
2023-01-30T19:26:54.726Z,17.88
2023-01-30T19:29:23.480Z,14.20
2023-01-30T19:31:52.268Z,13.82
2023-01-30T19:34:21.173Z,12.40
2023-01-30T19:36:51.010Z,12.30
2023-01-30T19:39:19.809Z,11.95
2023-01-30T19:41:48.921Z,10.38
2023-01-30T19:44:17.333Z,12.57
2023-01-30T19:46:46.234Z,11.63
2023-01-30T19:49:14.977Z,12.73
2023-01-30T19:51:43.889Z,14.00
2023-01-30T19:54:14.080Z,11.18
2023-01-30T19:56:47.344Z,10.80
2023-01-30T19:59:17.199Z,15.77
2023-01-30T20:01:45.544Z,13.25
2023-01-30T20:04:14.580Z,13.95
2023-01-30T20:06:46.325Z,11.57
2023-01-30T20:09:17.648Z,11.48
2023-01-30T20:11:46.465Z,10.60
2023-01-30T20:14:14.872Z,10.90
2023-01-30T20:16:43.275Z,11.30
2023-01-30T20:19:16.257Z,12.48
2023-01-30T20:21:45.792Z,13.35
2023-01-30T20:24:16.688Z,12.85
2023-01-30T20:26:48.513Z,10.73
2023-01-30T20:29:18.042Z,13.55
2023-01-30T20:31:46.997Z,15.65
2023-01-30T20:34:16.563Z,14.82
2023-01-30T20:36:44.971Z,19.77
2023-01-30T20:39:16.922Z,13.45
2023-01-30T20:41:45.478Z,11.25
2023-01-30T20:44:15.453Z,11.70
2023-01-30T20:46:46.374Z,8.93
2023-01-30T20:49:17.511Z,14.60
2023-01-30T20:51:47.440Z,16.73
2023-01-30T20:54:18.907Z,15.80
2023-01-30T20:56:50.325Z,10.15
2023-01-30T20:59:23.820Z,14.13
2023-01-30T21:01:53.016Z,11.82
2023-01-30T21:04:24.215Z,12.18
2023-01-30T21:06:52.793Z,10.13
2023-01-30T21:09:24.169Z,12.25
2023-01-30T21:11:54.854Z,11.85
2023-01-30T21:14:25.701Z,10.57
2023-01-30T21:16:54.945Z,10.85
2023-01-30T21:19:23.468Z,13.45
2023-01-30T21:21:54.999Z,10.25
2023-01-30T21:24:28.200Z,12.02
2023-01-30T21:26:58.365Z,10.30
2023-01-30T21:29:28.702Z,11.57
2023-01-30T21:31:58.023Z,11.20
2023-01-30T21:34:26.632Z,13.60
2023-01-30T21:37:14.902Z,16.80
2023-01-30T21:40:02.184Z,12.88
2023-01-30T21:42:48.075Z,12.07
2023-01-30T21:45:16.783Z,8.85
2023-01-30T21:47:45.139Z,8.57
2023-01-30T21:50:13.722Z,9.10
2023-01-30T21:52:42.107Z,8.88
2023-01-30T21:55:12.208Z,6.47
2023-01-30T21:57:40.613Z,8.18
2023-01-30T22:00:10.892Z,9.30
2023-01-30T22:02:39.236Z,16.35
2023-01-30T22:05:09.414Z,6.25
2023-01-30T22:07:37.812Z,8.13
2023-01-30T22:10:06.826Z,8.23
2023-01-30T22:12:39.974Z,8.10
2023-01-30T22:15:10.144Z,6.80
2023-01-30T22:17:38.677Z,8.75
2023-01-30T22:20:09.996Z,8.75
2023-01-30T22:22:38.696Z,6.00
2023-01-30T22:25:08.600Z,11.02
2023-01-30T22:27:38.516Z,5.75
2023-01-30T22:30:08.306Z,9.00
2023-01-30T22:32:36.583Z,9.48
2023-01-30T22:35:05.551Z,6.93
2023-01-30T22:37:34.047Z,6.50
2023-01-30T22:40:02.396Z,8.05
2023-01-30T22:42:30.833Z,6.57
2023-01-30T22:45:02.645Z,5.88
2023-01-30T22:47:31.104Z,7.28
2023-01-30T22:49:59.485Z,9.50
2023-01-30T22:52:28.217Z,8.27
2023-01-30T22:54:56.589Z,8.13
2023-01-30T22:57:25.093Z,7.57
2023-01-30T22:59:53.414Z,6.80
2023-01-30T23:02:23.180Z,6.50
2023-01-30T23:04:52.038Z,6.30
2023-01-30T23:07:22.158Z,9.13
2023-01-30T23:09:50.531Z,6.22
2023-01-30T23:12:36.790Z,6.72
2023-01-30T23:15:06.373Z,6.60
2023-01-30T23:17:53.623Z,4.65
2023-01-30T23:20:22.377Z,8.60
2023-01-30T23:22:53.463Z,9.15
2023-01-30T23:25:24.804Z,7.65
2023-01-30T23:27:53.740Z,6.78
2023-01-30T23:47:46.408Z,5.80
2023-01-30T23:50:14.975Z,4.65
2023-01-30T23:52:45.095Z,8.82
2023-01-30T23:55:13.504Z,7.63
2023-01-30T23:57:41.861Z,7.30
